Time;durP1;ratioP1;P1;durP2;ratioP2;P2;SDS_P1;SDS_P2;PMS_P1;PMS_P2;Temp;Humidity;BMP_temperature;BMP_pressure;BME280_temperature;BME280_humidity;BME280_pressure;Samples;Min_cycle;Max_cycle;Signal;HPM_P1;HPM_P2
2021/05/09 00:01:40;;;;;;;1.95;1.60;;;;;;;25.88;16.48;95017.09;5076448;28;20053;-52
2021/05/09 00:04:09;;;;;;;2.95;1.60;;;;;;;25.44;16.74;95025.00;5076169;28;20056;-43
2021/05/09 00:06:36;;;;;;;2.15;1.70;;;;;;;25.86;16.41;95018.59;5076279;28;20048;-52
2021/05/09 00:09:04;;;;;;;2.42;1.70;;;;;;;24.91;17.49;95031.19;5076413;28;20048;-53
2021/05/09 00:11:31;;;;;;;3.60;1.95;;;;;;;25.92;16.63;95027.84;5076305;28;20071;-52
2021/05/09 00:13:58;;;;;;;3.40;2.10;;;;;;;25.11;17.48;95033.75;5075943;28;20049;-44
2021/05/09 00:16:26;;;;;;;3.45;2.03;;;;;;;24.80;17.41;95037.53;5075858;28;20048;-52
2021/05/09 00:18:53;;;;;;;3.10;1.80;;;;;;;25.86;16.41;95023.97;5075109;28;20375;-43
2021/05/09 00:21:20;;;;;;;2.65;1.70;;;;;;;25.36;16.89;95024.16;5075185;28;20059;-45
2021/05/09 00:23:48;;;;;;;2.78;1.88;;;;;;;25.38;16.70;95029.13;5076010;28;20067;-45
2021/05/09 00:26:15;;;;;;;2.65;2.10;;;;;;;25.75;16.37;95027.28;5057824;28;20382;-42
2021/05/09 00:28:43;;;;;;;4.68;1.90;;;;;;;25.05;17.24;95022.63;5055978;28;20052;-59
2021/05/09 00:31:10;;;;;;;2.50;1.80;;;;;;;25.60;16.53;95022.91;5075903;28;20052;-53
2021/05/09 00:33:38;;;;;;;2.45;1.67;;;;;;;25.84;16.55;95020.88;5075722;28;20055;-54
2021/05/09 00:36:13;;;;;;;2.40;1.75;;;;;;;26.09;16.61;95016.53;5075635;28;20394;-58
2021/05/09 00:38:40;;;;;;;3.13;1.90;;;;;;;25.84;16.74;95018.19;5075558;28;20051;-54
2021/05/09 00:41:07;;;;;;;2.92;2.40;;;;;;;25.32;17.07;95014.53;5075976;28;20202;-47
2021/05/09 00:43:35;;;;;;;2.67;1.85;;;;;;;24.83;17.76;95023.44;5075616;28;20067;-47
2021/05/09 00:46:02;;;;;;;2.72;1.80;;;;;;;25.02;17.33;95020.66;5075514;28;20776;-53
2021/05/09 00:48:37;;;;;;;2.25;1.70;;;;;;;25.65;16.93;95022.56;5074837;28;20048;-55
2021/05/09 00:51:05;;;;;;;2.03;1.60;;;;;;;25.28;17.60;95019.09;5075511;28;20053;-53
2021/05/09 00:53:34;;;;;;;4.93;1.90;;;;;;;25.49;17.07;95022.00;5074444;28;20451;-50
2021/05/09 00:56:02;;;;;;;2.28;1.70;;;;;;;25.60;16.82;95017.53;5056187;28;20051;-47
2021/05/09 00:58:32;;;;;;;5.30;1.98;;;;;;;25.43;17.59;95020.78;5056342;28;20044;-56
2021/05/09 01:01:00;;;;;;;2.47;1.33;;;;;;;25.75;17.02;95024.59;5073751;28;20360;-52
2021/05/09 01:03:28;;;;;;;2.60;1.60;;;;;;;25.66;17.22;95024.09;5074365;28;20056;-45
2021/05/09 01:05:57;;;;;;;2.55;1.60;;;;;;;24.83;18.14;95034.88;5075065;28;20040;-50
2021/05/09 01:08:29;;;;;;;2.88;1.75;;;;;;;24.53;18.69;95032.16;5074364;28;20040;-49
2021/05/09 01:10:56;;;;;;;2.10;1.70;;;;;;;25.20;18.00;95028.91;5057410;28;20059;-56
2021/05/09 01:13:24;;;;;;;2.92;1.77;;;;;;;25.49;17.52;95038.03;5057545;28;20055;-49
2021/05/09 01:15:52;;;;;;;2.88;1.65;;;;;;;24.80;18.04;95034.84;5074852;28;20051;-59
2021/05/09 01:18:19;;;;;;;2.83;1.80;;;;;;;24.86;17.85;95039.50;5075167;28;20048;-55
2021/05/09 01:20:46;;;;;;;2.35;1.60;;;;;;;24.67;18.35;95033.50;5040313;28;20382;-59
2021/05/09 01:23:14;;;;;;;3.70;1.80;;;;;;;24.53;17.94;95037.50;5073360;28;20056;-57
2021/05/09 01:25:42;;;;;;;2.95;1.88;;;;;;;24.70;18.49;95035.44;5074815;28;20056;-55
2021/05/09 01:28:10;;;;;;;2.55;1.70;;;;;;;25.03;18.19;95026.78;5074813;28;20053;-44
2021/05/09 01:30:39;;;;;;;2.63;1.80;;;;;;;24.69;18.55;95032.00;5074586;28;20056;-48
2021/05/09 01:33:07;;;;;;;3.58;2.22;;;;;;;24.55;18.51;95035.25;5074768;28;20044;-44
2021/05/09 01:35:35;;;;;;;3.33;2.03;;;;;;;24.46;18.40;95032.06;5073541;28;20048;-52
2021/05/09 01:38:04;;;;;;;4.50;1.98;;;;;;;24.26;18.97;95035.91;5074578;28;20040;-60
2021/05/09 01:40:31;;;;;;;3.72;2.00;;;;;;;24.57;18.33;95038.34;5074309;28;20049;-54
2021/05/09 01:42:59;;;;;;;4.40;2.08;;;;;;;24.97;18.26;95033.53;5074582;28;20044;-49
2021/05/09 01:45:26;;;;;;;3.05;1.80;;;;;;;24.18;18.97;95036.88;5056921;28;20055;-52
2021/05/09 01:47:53;;;;;;;2.65;2.03;;;;;;;24.12;18.90;95043.66;5074595;28;20052;-51
2021/05/09 01:50:21;;;;;;;2.55;1.77;;;;;;;24.20;19.13;95039.97;5074284;28;20060;-52
2021/05/09 01:52:48;;;;;;;2.40;1.70;;;;;;;24.62;18.28;95039.16;5073471;28;20048;-44
2021/05/09 01:55:19;;;;;;;2.60;1.77;;;;;;;24.46;18.79;95047.28;5056711;28;20056;-44
2021/05/09 01:57:55;;;;;;;4.55;2.30;;;;;;;24.32;19.04;95042.50;5073249;28;20060;-57
2021/05/09 02:00:34;;;;;;;5.50;1.95;;;;;;;24.08;19.24;95048.16;5055241;28;20045;-51
2021/05/09 02:03:09;;;;;;;2.80;1.90;;;;;;;24.51;18.73;95042.44;5072940;28;20080;-45
2021/05/09 02:05:37;;;;;;;3.03;2.10;;;;;;;23.60;19.80;95050.34;5073293;28;20049;-47
2021/05/09 02:08:05;;;;;;;2.65;1.90;;;;;;;24.19;18.85;95051.78;5073314;28;20443;-51
2021/05/09 02:10:36;;;;;;;3.53;2.70;;;;;;;23.79;19.54;95050.34;5056489;28;20056;-53
2021/05/09 02:13:04;;;;;;;3.85;2.13;;;;;;;25.55;17.43;95046.56;5073763;28;20043;-51
2021/05/09 02:15:39;;;;;;;2.97;2.03;;;;;;;23.78;19.21;95048.78;5074130;28;20332;-49
2021/05/09 02:18:08;;;;;;;2.97;2.00;;;;;;;24.60;18.29;95047.53;5056507;28;20056;-53
2021/05/09 02:20:40;;;;;;;4.22;2.40;;;;;;;24.57;18.54;95051.69;5072750;28;20055;-43
2021/05/09 02:23:08;;;;;;;2.63;2.20;;;;;;;24.07;19.24;95051.97;5074313;28;20059;-42
2021/05/09 02:25:35;;;;;;;4.38;2.20;;;;;;;24.11;19.10;95053.56;5073908;28;20057;-51
2021/05/09 02:28:06;;;;;;;4.10;2.10;;;;;;;24.54;18.55;95049.75;5056600;28;20082;-54
2021/05/09 02:30:34;;;;;;;4.13;2.38;;;;;;;24.36;18.96;95054.03;5072732;28;20049;-51
2021/05/09 02:33:01;;;;;;;3.38;2.30;;;;;;;24.08;19.28;95054.28;5056664;28;20044;-44
2021/05/09 02:35:30;;;;;;;5.72;2.90;;;;;;;24.02;19.38;95060.28;5054894;28;20052;-45
2021/05/09 02:37:57;;;;;;;3.60;2.30;;;;;;;24.25;19.14;95053.06;5073950;28;20063;-44
2021/05/09 02:40:24;;;;;;;4.20;2.20;;;;;;;24.15;19.09;95059.75;5055925;28;20056;-44
2021/05/09 02:42:51;;;;;;;4.75;2.53;;;;;;;24.40;18.92;95076.22;5074011;28;20040;-49
2021/05/09 02:45:20;;;;;;;3.10;2.10;;;;;;;24.62;18.41;95055.97;5072916;28;20049;-50
2021/05/09 02:47:47;;;;;;;5.97;2.67;;;;;;;24.26;19.37;95065.28;5056207;28;20048;-46
2021/05/09 02:50:19;;;;;;;5.63;2.17;;;;;;;24.38;19.16;95067.78;5055610;28;20067;-52
2021/05/09 02:52:46;;;;;;;4.78;2.42;;;;;;;23.45;20.16;95067.19;5074040;28;20041;-54
2021/05/09 02:55:14;;;;;;;4.65;3.05;;;;;;;24.06;19.12;95071.78;5073009;28;20056;-53
2021/05/09 02:57:43;;;;;;;3.95;2.83;;;;;;;23.71;19.44;95067.34;5039985;28;20059;-44
2021/05/09 03:00:11;;;;;;;3.25;2.20;;;;;;;24.23;18.86;95071.34;5072123;28;20454;-44
2021/05/09 03:02:41;;;;;;;5.15;3.05;;;;;;;23.39;19.88;95072.00;5070328;28;20052;-44
2021/05/09 03:05:13;;;;;;;4.32;2.80;;;;;;;23.89;19.00;95073.78;5056125;28;20052;-43
2021/05/09 03:07:41;;;;;;;4.65;3.03;;;;;;;23.40;19.70;95078.88;5055598;28;20055;-44
2021/05/09 03:10:08;;;;;;;4.38;2.53;;;;;;;23.68;19.31;95084.03;5073574;28;20055;-44
2021/05/09 03:12:35;;;;;;;3.67;2.85;;;;;;;23.67;19.29;95083.28;5056237;28;20131;-53
2021/05/09 03:15:04;;;;;;;4.88;2.70;;;;;;;23.64;19.28;95083.22;5056402;28;20359;-45
2021/05/09 03:17:33;;;;;;;6.28;2.83;;;;;;;23.78;19.69;95088.84;5072703;28;20044;-44
2021/05/09 03:20:00;;;;;;;3.67;2.15;;;;;;;23.82;19.69;95089.66;5073425;28;20404;-53
2021/05/09 03:22:28;;;;;;;4.32;2.97;;;;;;;23.42;20.04;95092.66;5073760;28;20363;-43
2021/05/09 03:24:55;;;;;;;3.90;2.38;;;;;;;23.74;19.83;95093.34;5075195;28;20056;-51
2021/05/09 03:27:22;;;;;;;7.22;3.65;;;;;;;24.37;18.62;95092.97;5076992;28;20049;-44
2021/05/09 03:29:49;;;;;;;6.78;2.65;;;;;;;23.44;20.15;95097.66;5075459;28;20048;-47
2021/05/09 03:32:16;;;;;;;5.32;2.55;;;;;;;23.60;19.93;95098.38;5077050;28;20048;-44
2021/05/09 03:34:43;;;;;;;6.97;2.72;;;;;;;23.83;19.40;95098.44;5077005;28;20048;-44
2021/05/09 03:37:11;;;;;;;4.82;3.10;;;;;;;23.26;19.41;95106.06;5077076;28;20060;-51
2021/05/09 03:39:39;;;;;;;5.03;3.10;;;;;;;22.10;20.80;95110.88;5076678;28;20454;-44
2021/05/09 03:42:07;;;;;;;6.55;2.90;;;;;;;22.91;20.12;95094.63;5076598;28;20044;-52
2021/05/09 03:44:34;;;;;;;4.43;2.65;;;;;;;21.80;21.39;95107.00;5076909;28;20363;-51
2021/05/09 03:47:01;;;;;;;7.53;3.85;;;;;;;21.40;22.33;95110.47;5076043;28;20481;-49
2021/05/09 03:49:28;;;;;;;6.20;3.53;;;;;;;21.70;22.20;95115.47;5076551;28;20048;-54
2021/05/09 03:51:55;;;;;;;8.00;3.45;;;;;;;21.94;21.85;95119.94;5076716;28;20064;-59
2021/05/09 03:54:23;;;;;;;6.43;3.60;;;;;;;21.89;22.18;95125.50;5076567;28;20447;-51
2021/05/09 03:56:50;;;;;;;5.90;3.83;;;;;;;22.14;21.36;95117.09;5076752;28;20052;-52
2021/05/09 03:59:17;;;;;;;5.25;3.15;;;;;;;21.92;21.24;95120.25;5074360;28;20048;-48
2021/05/09 04:01:44;;;;;;;6.75;4.18;;;;;;;21.01;22.72;95135.06;5076616;28;20060;-43
2021/05/09 04:04:11;;;;;;;11.48;4.40;;;;;;;21.15;22.13;95135.53;5076509;28;20060;-43
2021/05/09 04:06:38;;;;;;;7.05;4.45;;;;;;;22.13;21.29;95136.84;5076799;28;20049;-43
2021/05/09 04:09:06;;;;;;;7.05;4.28;;;;;;;21.25;22.74;95140.41;5076486;28;20058;-43
2021/05/09 04:11:33;;;;;;;9.45;4.68;;;;;;;21.28;22.36;95129.09;5076321;28;20394;-56
2021/05/09 04:14:01;;;;;;;6.85;4.85;;;;;;;21.93;21.71;95137.78;5076240;28;20052;-42
2021/05/09 04:16:28;;;;;;;8.25;5.38;;;;;;;21.48;22.36;95138.81;5076399;28;20454;-43
2021/05/09 04:18:55;;;;;;;9.63;5.35;;;;;;;21.68;22.08;95134.44;5076325;28;20075;-43
2021/05/09 04:21:22;;;;;;;9.55;5.35;;;;;;;21.62;22.44;95140.34;5075835;28;20047;-44
2021/05/09 04:23:49;;;;;;;8.32;4.88;;;;;;;22.00;21.44;95143.28;5076164;28;20055;-43
2021/05/09 04:26:16;;;;;;;7.90;4.90;;;;;;;21.54;22.52;95137.47;5075509;28;20051;-50
2021/05/09 04:28:44;;;;;;;7.78;4.68;;;;;;;22.02;21.91;95146.38;5075850;28;20049;-45
2021/05/09 04:31:11;;;;;;;8.02;4.43;;;;;;;22.22;21.31;95138.56;5075599;28;20068;-51
2021/05/09 04:33:39;;;;;;;7.72;4.00;;;;;;;22.60;20.98;95149.44;5075826;28;20053;-43
2021/05/09 04:36:06;;;;;;;5.53;3.25;;;;;;;22.83;20.14;95151.53;5075388;28;20447;-45
2021/05/09 04:38:33;;;;;;;6.00;3.03;;;;;;;22.55;20.90;95147.03;5076116;28;20047;-43
2021/05/09 04:41:01;;;;;;;4.45;3.42;;;;;;;22.78;20.60;95160.53;5075591;28;20048;-43
2021/05/09 04:43:28;;;;;;;6.72;3.25;;;;;;;24.40;19.00;95166.31;5075586;28;20044;-43
2021/05/09 04:45:57;;;;;;;5.65;3.97;;;;;;;23.12;19.73;95161.72;5075606;28;20535;-49
2021/05/09 04:48:24;;;;;;;8.02;3.70;;;;;;;23.47;19.99;95169.00;5074917;28;20052;-43
2021/05/09 04:50:52;;;;;;;6.97;3.45;;;;;;;22.96;20.46;95183.09;5075329;28;20048;-51
2021/05/09 04:53:36;;;;;;;5.47;3.42;;;;;;;23.28;20.05;95167.81;5075530;28;20465;-43
2021/05/09 04:56:08;;;;;;;7.18;3.15;;;;;;;23.15;19.75;95163.69;5075156;28;20044;-44
2021/05/09 04:58:42;;;;;;;8.18;3.72;;;;;;;24.24;18.80;95175.16;5074777;28;20059;-44
2021/05/09 05:01:11;;;;;;;5.75;3.28;;;;;;;23.66;19.85;95177.81;5074234;28;20076;-44
2021/05/09 05:03:39;;;;;;;4.85;3.40;;;;;;;24.29;19.12;95179.47;5075315;28;20044;-44
2021/05/09 05:06:06;;;;;;;5.43;3.17;;;;;;;23.72;18.80;95185.56;5075292;28;20052;-44
2021/05/09 05:08:34;;;;;;;5.80;3.30;;;;;;;23.62;19.38;95165.53;5075200;28;20048;-44
2021/05/09 05:11:04;;;;;;;5.70;3.35;;;;;;;23.99;18.87;95174.69;5073227;28;20059;-44
2021/05/09 05:13:32;;;;;;;4.28;3.28;;;;;;;24.07;18.75;95169.47;5073930;28;20071;-43
2021/05/09 05:16:04;;;;;;;3.72;3.15;;;;;;;24.85;17.98;95171.66;5074806;28;20044;-43
2021/05/09 05:18:31;;;;;;;4.60;3.22;;;;;;;24.08;18.57;95171.78;5073978;28;20052;-43
2021/05/09 05:21:04;;;;;;;4.88;2.60;;;;;;;22.98;19.79;95167.53;5074255;28;20060;-53
2021/05/09 05:23:32;;;;;;;8.73;3.30;;;;;;;25.40;16.71;95184.75;5056849;28;20044;-66
2021/05/09 05:25:59;;;;;;;5.65;3.35;;;;;;;24.87;18.22;95195.38;5074558;28;20052;-51
2021/05/09 05:28:26;;;;;;;4.93;3.10;;;;;;;25.44;17.43;95185.56;5074807;28;20053;-68
2021/05/09 05:30:54;;;;;;;6.57;3.88;;;;;;;25.18;17.81;95195.13;5073271;28;20059;-64
2021/05/09 05:33:34;;;;;;;6.43;3.47;;;;;;;25.87;17.06;95191.53;5073651;28;20047;-65
2021/05/09 05:36:04;;;;;;;5.90;3.70;;;;;;;25.28;17.10;95188.44;5074566;28;20399;-50
2021/05/09 05:38:32;;;;;;;4.85;3.67;;;;;;;25.90;17.12;95193.50;5073686;28;20044;-59
2021/05/09 05:40:59;;;;;;;6.38;3.78;;;;;;;26.50;16.41;95193.44;5074518;28;20044;-62
2021/05/09 05:43:28;;;;;;;9.25;3.80;;;;;;;25.76;18.00;95205.59;5074684;28;20048;-46
2021/05/09 05:45:56;;;;;;;7.45;3.10;;;;;;;28.31;16.07;95202.78;5074503;28;20583;-56
2021/05/09 05:48:24;;;;;;;5.55;3.60;;;;;;;26.28;17.56;95198.53;5074105;28;20123;-52
2021/05/09 05:50:52;;;;;;;5.65;3.15;;;;;;;27.22;15.84;95198.31;5074334;28;20048;-48
2021/05/09 05:53:21;;;;;;;4.25;3.45;;;;;;;27.82;15.58;95203.31;5074709;28;20040;-47
2021/05/09 05:55:49;;;;;;;5.18;3.50;;;;;;;28.01;15.01;95197.66;5074504;28;20363;-46
2021/05/09 05:58:16;;;;;;;4.50;3.45;;;;;;;28.38;14.50;95199.38;5056166;28;20059;-46
2021/05/09 06:00:44;;;;;;;6.13;3.15;;;;;;;27.50;15.59;95198.50;5072987;28;20051;-48
2021/05/09 06:03:11;;;;;;;6.50;3.97;;;;;;;28.57;14.77;95207.09;5074456;28;20471;-46
2021/05/09 06:05:38;;;;;;;5.22;3.60;;;;;;;28.01;15.56;95205.72;5074457;28;20044;-46
2021/05/09 06:08:06;;;;;;;6.25;3.67;;;;;;;29.66;13.62;95204.84;5074572;28;20053;-51
2021/05/09 06:10:33;;;;;;;6.05;3.60;;;;;;;30.08;13.25;95207.44;5074387;28;20044;-48
2021/05/09 06:13:00;;;;;;;4.57;3.40;;;;;;;31.27;12.90;95214.50;5074358;28;20044;-49
2021/05/09 06:15:29;;;;;;;4.50;3.42;;;;;;;30.06;13.25;95209.00;5074509;28;20048;-53
2021/05/09 06:17:56;;;;;;;5.82;3.60;;;;;;;29.70;13.92;95211.00;5074629;28;20048;-47
2021/05/09 06:20:24;;;;;;;6.45;3.63;;;;;;;31.14;12.66;95196.44;5074461;28;20044;-51
2021/05/09 06:22:58;;;;;;;5.90;3.30;;;;;;;30.30;12.83;95201.97;5074828;28;20048;-45
2021/05/09 06:25:27;;;;;;;4.60;3.40;;;;;;;30.57;12.83;95205.69;5073586;28;20463;-47
2021/05/09 06:27:54;;;;;;;5.88;3.70;;;;;;;30.33;12.72;95201.19;5074187;28;20063;-49
2021/05/09 06:30:21;;;;;;;4.00;3.33;;;;;;;31.56;12.05;95203.44;5071288;28;20048;-61
2021/05/09 06:32:49;;;;;;;4.30;3.30;;;;;;;31.36;12.74;95210.56;5074356;28;20059;-48
2021/05/09 06:35:16;;;;;;;5.60;4.13;;;;;;;31.25;13.03;95210.66;5073219;28;20055;-47
2021/05/09 06:37:43;;;;;;;7.03;4.30;;;;;;;31.52;12.73;95213.53;5074240;28;20044;-47
2021/05/09 06:40:11;;;;;;;9.20;4.30;;;;;;;31.53;12.98;95220.47;5073733;28;20056;-45
2021/05/09 06:42:38;;;;;;;8.57;4.35;;;;;;;31.61;12.16;95224.63;5070028;28;20044;-45
2021/05/09 06:45:11;;;;;;;5.18;3.55;;;;;;;31.17;12.60;95217.28;5068318;28;20049;-46
2021/05/09 06:47:38;;;;;;;9.10;4.15;;;;;;;31.60;12.57;95226.56;5070182;28;20056;-46
2021/05/09 06:50:06;;;;;;;6.30;4.22;;;;;;;31.89;12.23;95224.34;5069226;28;20044;-50
2021/05/09 06:52:33;;;;;;;6.93;4.32;;;;;;;31.71;11.92;95226.47;5071807;28;20044;-45
2021/05/09 06:55:02;;;;;;;5.63;3.88;;;;;;;31.58;12.42;95233.53;5065225;28;20048;-44
2021/05/09 06:57:29;;;;;;;7.35;4.25;;;;;;;32.29;10.99;95223.94;5066301;28;20079;-47
2021/05/09 06:59:57;;;;;;;8.57;4.45;;;;;;;31.27;11.86;95230.72;5071806;28;20052;-47
2021/05/09 07:02:24;;;;;;;5.22;3.65;;;;;;;31.36;12.24;95224.06;5073702;28;20045;-45
2021/05/09 07:04:51;;;;;;;5.88;4.43;;;;;;;31.98;11.76;95225.81;5073497;28;20044;-50
2021/05/09 07:07:18;;;;;;;6.93;4.22;;;;;;;32.80;11.53;95225.63;5074769;28;20378;-47
2021/05/09 07:09:45;;;;;;;6.18;4.15;;;;;;;32.15;11.46;95228.31;5075116;28;20044;-53
2021/05/09 07:12:17;;;;;;;6.10;3.90;;;;;;;31.88;12.69;95225.53;5073125;28;20040;-51
2021/05/09 07:14:44;;;;;;;5.47;3.80;;;;;;;32.89;11.61;95225.09;5074125;28;20049;-45
2021/05/09 07:17:12;;;;;;;6.57;3.70;;;;;;;32.60;11.02;95227.41;5073737;28;20052;-46
2021/05/09 07:19:40;;;;;;;5.55;4.30;;;;;;;32.34;11.65;95218.84;5073845;28;20044;-46
2021/05/09 07:22:27;;;;;;;5.70;4.20;;;;;;;32.42;11.89;95230.34;5070660;28;20045;-49
2021/05/09 07:24:54;;;;;;;7.32;3.72;;;;;;;32.42;11.48;95231.09;5072341;28;20051;-52
2021/05/09 07:27:21;;;;;;;5.47;3.70;;;;;;;32.39;11.48;95228.44;5072160;28;20067;-50
2021/05/09 07:29:48;;;;;;;5.25;3.80;;;;;;;32.98;11.00;95234.22;5071251;28;20335;-46
2021/05/09 07:32:15;;;;;;;6.45;4.10;;;;;;;32.82;10.83;95225.22;5071428;28;20055;-54
2021/05/09 07:34:43;;;;;;;6.07;3.53;;;;;;;33.32;11.27;95236.06;5074889;28;20055;-52
2021/05/09 07:37:11;;;;;;;6.18;4.00;;;;;;;32.60;11.83;95230.88;5073191;28;20051;-49
2021/05/09 07:39:38;;;;;;;9.05;3.90;;;;;;;32.48;11.90;95224.06;5071944;28;20051;-46
2021/05/09 07:42:05;;;;;;;4.88;3.22;;;;;;;33.07;11.58;95231.03;5074216;28;20442;-51
2021/05/09 07:44:32;;;;;;;5.35;3.30;;;;;;;35.04;9.95;95234.31;5072848;28;20052;-51
2021/05/09 07:46:59;;;;;;;4.38;3.67;;;;;;;35.11;9.98;95234.16;5072877;28;20067;-51
2021/05/09 07:49:27;;;;;;;5.60;3.40;;;;;;;35.16;10.04;95233.66;5071941;28;20045;-49
2021/05/09 07:51:54;;;;;;;4.32;3.25;;;;;;;34.87;9.68;95231.59;5071435;28;20048;-48
2021/05/09 07:54:21;;;;;;;8.15;3.50;;;;;;;34.35;9.66;95234.22;5070625;28;20060;-46
2021/05/09 07:56:48;;;;;;;4.15;2.97;;;;;;;35.63;9.42;95220.47;5072172;28;20354;-47
2021/05/09 07:59:15;;;;;;;4.65;3.40;;;;;;;35.31;9.01;95231.34;5070021;28;20045;-49
2021/05/09 08:01:42;;;;;;;3.58;2.72;;;;;;;36.13;9.05;95225.38;5072575;28;20483;-48
2021/05/09 08:04:09;;;;;;;3.17;2.65;;;;;;;35.31;9.34;95236.78;5072577;28;20056;-48
2021/05/09 08:06:38;;;;;;;7.90;4.57;;;;;;;35.26;9.72;95227.19;5072190;28;20064;-49
2021/05/09 08:09:06;;;;;;;5.55;4.00;;;;;;;34.84;9.54;95216.13;5071989;28;20044;-48
2021/05/09 08:11:33;;;;;;;4.45;3.58;;;;;;;35.14;9.05;95222.47;5071128;28;20053;-45
2021/05/09 08:14:00;;;;;;;5.25;3.97;;;;;;;35.78;9.23;95216.19;5073056;28;20040;-48
2021/05/09 08:16:27;;;;;;;5.78;4.63;;;;;;;35.46;8.95;95214.31;5073670;28;20044;-45
2021/05/09 08:18:54;;;;;;;7.25;3.63;;;;;;;35.29;8.73;95223.63;5072109;28;20051;-49
2021/05/09 08:21:21;;;;;;;6.03;4.00;;;;;;;35.51;8.79;95221.19;5072344;28;20048;-47
2021/05/09 08:23:48;;;;;;;6.68;4.40;;;;;;;34.61;9.89;95224.38;5074338;28;20063;-50
2021/05/09 08:26:15;;;;;;;7.47;3.88;;;;;;;33.96;10.56;95221.41;5074540;28;20052;-59
2021/05/09 08:28:43;;;;;;;4.05;3.50;;;;;;;34.37;10.33;95220.25;5073936;28;20067;-49
2021/05/09 08:31:12;;;;;;;6.47;4.25;;;;;;;35.26;10.12;95219.06;5073236;28;20059;-50
2021/05/09 08:33:40;;;;;;;6.97;3.40;;;;;;;34.85;9.91;95216.91;5073969;28;20048;-48
2021/05/09 08:36:07;;;;;;;10.88;8.13;;;;;;;34.96;9.91;95216.66;5072864;28;20355;-47
2021/05/09 08:38:35;;;;;;;8.10;6.20;;;;;;;35.30;9.26;95219.72;5075702;28;20047;-54
2021/05/09 08:41:02;;;;;;;41.05;30.45;;;;;;;34.97;8.78;95223.63;5075770;28;20045;-48
2021/05/09 08:43:30;;;;;;;12.80;10.10;;;;;;;34.62;9.35;95228.66;5075522;28;20052;-51
2021/05/09 08:45:58;;;;;;;11.00;7.75;;;;;;;35.05;8.61;95225.75;5074198;28;20044;-48
2021/05/09 08:48:26;;;;;;;8.43;6.80;;;;;;;35.39;9.14;95222.63;5071011;28;20048;-47
2021/05/09 08:50:54;;;;;;;8.02;6.30;;;;;;;38.09;8.40;95229.47;5056427;28;20055;-51
2021/05/09 08:53:21;;;;;;;5.53;3.15;;;;;;;36.68;8.77;95226.16;5074518;28;20386;-52
2021/05/09 08:55:50;;;;;;;4.40;2.75;;;;;;;37.05;8.49;95210.28;5071889;28;20051;-49
2021/05/09 08:58:17;;;;;;;7.47;3.03;;;;;;;37.39;8.91;95209.59;5075527;28;20623;-47
2021/05/09 09:00:44;;;;;;;7.00;3.20;;;;;;;36.49;8.34;95204.59;5074243;28;20052;-48
2021/05/09 09:03:13;;;;;;;4.50;2.72;;;;;;;37.49;8.75;95199.56;5074237;28;20459;-46
2021/05/09 09:05:42;;;;;;;8.70;2.80;;;;;;;37.93;8.13;95212.06;5074908;28;20398;-49
2021/05/09 09:08:11;;;;;;;6.28;2.70;;;;;;;37.52;8.86;95204.13;5074279;28;20049;-48
2021/05/09 09:10:41;;;;;;;3.10;2.28;;;;;;;37.83;7.98;95205.03;5075007;28;20051;-46
2021/05/09 09:13:23;;;;;;;11.82;10.70;;;;;;;38.13;7.43;95202.81;5073181;28;20071;-49
2021/05/09 09:15:58;;;;;;;8.55;5.30;;;;;;;38.55;7.60;95204.00;5073621;28;20047;-52
2021/05/09 09:18:37;;;;;;;3.58;2.70;;;;;;;36.72;7.75;95204.28;5074359;28;20051;-50
2021/05/09 09:21:27;;;;;;;4.22;3.10;;;;;;;37.22;7.30;95198.06;5073353;28;20051;-49
2021/05/09 09:24:14;;;;;;;3.42;2.58;;;;;;;36.97;7.73;95198.84;5073777;28;20489;-50
2021/05/09 09:26:50;;;;;;;5.43;2.33;;;;;;;36.93;7.62;95198.19;5074356;28;20044;-50
2021/05/09 09:29:28;;;;;;;3.28;2.10;;;;;;;37.14;7.33;95196.75;5072977;28;20048;-50
2021/05/09 09:31:57;;;;;;;4.03;1.95;;;;;;;37.13;7.54;95187.06;5074273;28;20059;-49
2021/05/09 09:34:40;;;;;;;3.83;3.20;;;;;;;36.88;7.64;95190.56;5074690;28;20045;-46
2021/05/09 09:37:21;;;;;;;12.23;9.82;;;;;;;36.38;8.40;95185.84;5089508;27;20876;-50
2021/05/09 09:39:59;;;;;;;19.70;17.33;;;;;;;37.01;8.38;95179.66;5090140;28;20051;-55
2021/05/09 09:42:44;;;;;;;22.85;17.90;;;;;;;37.55;8.59;95182.19;5090337;28;20051;-54
2021/05/09 09:45:18;;;;;;;14.85;9.77;;;;;;;37.60;7.05;95181.63;5089802;28;20048;-53
2021/05/09 09:47:51;;;;;;;5.05;3.75;;;;;;;37.34;8.30;95183.66;5090745;28;20044;-53
2021/05/09 09:50:40;;;;;;;5.05;3.60;;;;;;;37.70;8.34;95182.44;5090229;28;20044;-51
2021/05/09 09:53:30;;;;;;;3.85;2.20;;;;;;;36.87;7.91;95189.03;5089671;28;20052;-48
2021/05/09 09:56:12;;;;;;;4.60;2.45;;;;;;;36.96;9.06;95185.69;5091496;28;20051;-50
2021/05/09 09:58:56;;;;;;;3.08;2.10;;;;;;;37.63;8.68;95177.25;5091453;28;20478;-50
2021/05/09 10:01:34;;;;;;;2.67;2.00;;;;;;;37.51;7.93;95180.78;5072223;28;20053;-50
2021/05/09 10:04:04;;;;;;;5.43;1.85;;;;;;;38.03;8.41;95176.66;5071941;28;20040;-51
2021/05/09 10:06:32;;;;;;;3.10;1.85;;;;;;;37.86;9.06;95178.81;5084030;28;20086;-51
2021/05/09 10:08:59;;;;;;;3.42;1.85;;;;;;;37.05;8.72;95174.88;5092258;28;20052;-55
2021/05/09 10:11:28;;;;;;;4.80;1.98;;;;;;;37.71;9.86;95172.28;5092098;28;20138;-63
2021/05/09 10:13:57;;;;;;;3.20;1.60;;;;;;;36.93;7.68;95178.34;5091911;28;20435;-52
2021/05/09 10:16:26;;;;;;;1.77;1.40;;;;;;;35.99;8.46;95165.94;5091745;28;20040;-52
2021/05/09 10:19:01;;;;;;;5.85;2.45;;;;;;;36.60;8.30;95167.66;5072162;28;20060;-52
2021/05/09 10:21:30;;;;;;;198.07;184.55;;;;;;;36.49;8.71;95167.25;5071924;28;20044;-53
2021/05/09 10:24:13;;;;;;;90.22;82.75;;;;;;;36.93;9.51;95160.03;5071470;28;20044;-49
2021/05/09 10:27:04;;;;;;;9.43;8.43;;;;;;;37.14;8.46;95164.03;5084372;28;20055;-50
2021/05/09 10:29:35;;;;;;;2.67;1.90;;;;;;;36.85;8.47;95169.66;5091681;28;20454;-52
2021/05/09 10:32:29;;;;;;;3.47;1.80;;;;;;;38.33;8.72;95167.00;5081860;28;20051;-51
2021/05/09 10:34:57;;;;;;;2.42;1.67;;;;;;;38.15;8.10;95170.34;5079166;28;20053;-50
2021/05/09 10:37:42;;;;;;;1.90;1.40;;;;;;;37.26;9.34;95160.56;5089665;28;20040;-54
2021/05/09 10:40:21;;;;;;;27.48;24.55;;;;;;;38.18;8.64;95156.59;5091528;28;20051;-52
2021/05/09 10:43:01;;;;;;;8.73;7.93;;;;;;;38.32;7.44;95149.88;5082227;28;20045;-54
2021/05/09 10:45:41;;;;;;;5.13;3.92;;;;;;;38.07;6.96;95156.22;5073170;28;20041;-53
2021/05/09 10:48:18;;;;;;;2.55;1.95;;;;;;;37.53;7.01;95137.47;5080979;28;20051;-52
2021/05/09 10:50:50;;;;;;;2.85;2.03;;;;;;;37.36;6.90;95134.16;5078020;28;20450;-51
2021/05/09 10:53:40;;;;;;;2.63;1.65;;;;;;;37.69;7.08;95125.59;5060237;28;20049;-50
2021/05/09 10:56:16;;;;;;;2.17;1.30;;;;;;;37.62;6.64;95132.09;5077482;28;20106;-50
2021/05/09 10:58:50;;;;;;;2.85;1.20;;;;;;;37.90;6.66;95133.81;5077782;28;20435;-50
2021/05/09 11:01:19;;;;;;;3.20;1.45;;;;;;;37.53;6.57;95129.28;5077760;28;20067;-52
2021/05/09 11:04:04;;;;;;;1.80;1.00;;;;;;;37.45;6.17;95133.44;5077543;28;20051;-51
2021/05/09 11:06:46;;;;;;;1.35;0.90;;;;;;;37.07;6.07;95130.81;5077351;28;20060;-53
2021/05/09 11:09:14;;;;;;;;;;;;;;;37.39;5.70;95127.03;5078060;28;20518;-52
2021/05/09 11:11:40;;;;;;;4.75;3.25;;;;;;;37.09;6.83;95118.28;5077729;28;19916;-52
2021/05/09 11:14:09;;;;;;;3.63;1.50;;;;;;;37.60;6.09;95118.13;5077341;28;20049;-53
2021/05/09 11:16:37;;;;;;;2.38;1.30;;;;;;;37.40;5.54;95121.16;5077317;28;20049;-53
2021/05/09 11:19:18;;;;;;;2.65;1.98;;;;;;;36.32;6.78;95111.38;5077532;28;20045;-53
2021/05/09 11:21:54;;;;;;;1.70;1.30;;;;;;;36.95;7.73;95111.31;5074980;28;20044;-53
2021/05/09 11:24:30;;;;;;;2.58;1.25;;;;;;;37.08;6.32;95099.66;5072803;28;20466;-53
2021/05/09 11:26:59;;;;;;;2.65;1.02;;;;;;;37.26;6.94;95105.31;5076084;28;20055;-53
2021/05/09 11:29:28;;;;;;;2.55;1.20;;;;;;;36.75;7.15;95103.41;5077042;28;20047;-55
2021/05/09 11:31:56;;;;;;;2.08;1.20;;;;;;;36.35;7.55;95099.59;5069422;28;20045;-54
2021/05/09 11:34:26;;;;;;;3.25;1.13;;;;;;;37.03;6.35;95100.97;5056897;28;20067;-50
2021/05/09 11:36:55;;;;;;;1.98;1.20;;;;;;;36.96;6.32;95099.25;5075018;28;20045;-49
2021/05/09 11:39:34;;;;;;;1.65;1.23;;;;;;;36.32;7.04;95092.31;5076865;28;20044;-55
2021/05/09 11:42:16;;;;;;;11.63;7.97;;;;;;;36.06;7.21;95086.81;5076988;28;20052;-52
2021/05/09 11:44:45;;;;;;;6.60;5.10;;;;;;;36.25;7.56;95074.22;5076623;28;20055;-54
2021/05/09 11:47:14;;;;;;;3.20;2.40;;;;;;;36.78;7.34;95081.94;5075792;28;20055;-52
2021/05/09 11:49:42;;;;;;;2.20;1.73;;;;;;;36.37;7.55;95086.31;5076810;28;20044;-52